Time;durP1;ratioP1;P1;durP2;ratioP2;P2;SDS_P1;SDS_P2;PMS_P1;PMS_P2;Temp;Humidity;BMP_temperature;BMP_pressure;BME280_temperature;BME280_humidity;BME280_pressure;Samples;Min_cycle;Max_cycle;Signal;HPM_P1;HPM_P2
2022/04/05 00:02:23;;;;;;;11.90;8.33;;;9.20;52.40;;;;;;5133370;27;20484;-85
2022/04/05 00:04:50;;;;;;;10.80;8.43;;;9.30;51.80;;;;;;5128838;27;20473;-86
2022/04/05 00:07:17;;;;;;;10.27;7.67;;;9.20;52.70;;;;;;5131171;27;20444;-86
2022/04/05 00:09:44;;;;;;;11.20;7.63;;;9.20;52.90;;;;;;5131596;27;20456;-87
2022/04/05 00:12:11;;;;;;;14.20;8.33;;;9.20;53.60;;;;;;5132079;27;20461;-87
2022/04/05 00:14:38;;;;;;;11.67;7.80;;;9.40;53.60;;;;;;5131902;27;20442;-88
2022/04/05 00:17:07;;;;;;;11.20;8.00;;;9.50;53.90;;;;;;5132236;27;20448;-86
2022/04/05 00:19:34;;;;;;;11.83;8.30;;;9.30;53.70;;;;;;5111986;27;20544;-88
2022/04/05 00:22:01;;;;;;;12.90;8.40;;;9.20;54.30;;;;;;5115302;27;21167;-85
2022/04/05 00:24:28;;;;;;;15.13;8.70;;;9.30;55.40;;;;;;5086068;27;20538;-86
2022/04/05 00:26:55;;;;;;;11.77;8.17;;;9.30;54.50;;;;;;5130207;27;20811;-86
2022/04/05 00:29:22;;;;;;;11.87;7.97;;;9.30;54.30;;;;;;5133513;27;21097;-85
2022/04/05 00:31:49;;;;;;;11.47;8.17;;;9.20;54.60;;;;;;5131170;27;20465;-84
2022/04/05 00:34:18;;;;;;;12.17;9.80;;;9.10;54.80;;;;;;5112372;27;20445;-86
2022/04/05 00:36:45;;;;;;;12.00;7.03;;;9.10;55.10;;;;;;5131119;27;20831;-87
2022/04/05 00:39:12;;;;;;;10.43;8.67;;;9.20;56.20;;;;;;5132807;27;20433;-84
2022/04/05 00:41:39;;;;;;;11.30;8.40;;;9.10;55.80;;;;;;5114220;27;20483;-87
2022/04/05 00:44:06;;;;;;;14.87;9.53;;;9.20;56.00;;;;;;5129709;27;20475;-87
2022/04/05 00:46:33;;;;;;;10.93;7.83;;;9.10;55.90;;;;;;5113462;27;20450;-86
2022/04/05 00:49:03;;;;;;;13.67;8.33;;;9.10;55.70;;;;;;5112697;27;20444;-85
2022/04/05 00:51:31;;;;;;;11.37;8.70;;;9.00;56.50;;;;;;5128965;27;20449;-86
2022/04/05 00:54:03;;;;;;;12.60;9.43;;;9.00;57.00;;;;;;5130395;27;20500;-85
2022/04/05 00:56:33;;;;;;;16.87;9.97;;;8.90;57.10;;;;;;5114117;27;20829;-85
2022/04/05 00:59:02;;;;;;;11.03;8.20;;;8.70;58.30;;;;;;5131996;27;20450;-86
2022/04/05 01:01:30;;;;;;;10.20;8.40;;;8.70;57.80;;;;;;5130951;27;20457;-85
2022/04/05 01:03:57;;;;;;;12.87;8.13;;;8.40;57.90;;;;;;5131449;27;20484;-85
2022/04/05 01:06:26;;;;;;;12.77;9.03;;;8.50;58.80;;;;;;5112891;27;20454;-86
2022/04/05 01:08:56;;;;;;;10.77;8.10;;;8.50;58.10;;;;;;5114378;27;20449;-86
2022/04/05 01:11:24;;;;;;;12.67;8.63;;;8.60;58.10;;;;;;5120067;27;20453;-85
2022/04/05 01:13:52;;;;;;;13.07;9.20;;;8.50;58.30;;;;;;5136145;27;20473;-86
2022/04/05 01:16:20;;;;;;;10.17;8.30;;;8.30;58.90;;;;;;5135709;27;20437;-84
2022/04/05 01:18:48;;;;;;;10.73;8.43;;;8.50;58.70;;;;;;5137224;27;20450;-85
2022/04/05 01:21:15;;;;;;;14.43;8.10;;;8.60;58.50;;;;;;5135672;27;20442;-86
2022/04/05 01:24:03;;;;;;;13.37;8.63;;;8.60;58.10;;;;;;5119601;27;20517;-85
2022/04/05 01:26:37;;;;;;;12.13;8.80;;;8.50;58.20;;;;;;5102860;27;20449;-86
2022/04/05 01:29:04;;;;;;;11.90;7.20;;;8.50;57.70;;;;;;5116244;27;20460;-86
2022/04/05 01:31:31;;;;;;;13.40;8.20;;;8.50;57.80;;;;;;5099650;27;20442;-86
2022/04/05 01:33:59;;;;;;;12.93;9.40;;;8.60;58.40;;;;;;5118735;27;21313;-85
2022/04/05 01:36:26;;;;;;;10.77;7.90;;;8.70;57.70;;;;;;5135604;27;20986;-86
2022/04/05 01:38:54;;;;;;;13.20;8.47;;;8.80;58.30;;;;;;5118299;27;20453;-85
2022/04/05 01:41:21;;;;;;;10.20;7.47;;;8.70;59.00;;;;;;5126529;27;20787;-83
2022/04/05 01:43:48;;;;;;;13.90;8.73;;;8.60;59.10;;;;;;5115510;27;20539;-84
2022/04/05 01:46:15;;;;;;;12.70;8.73;;;8.50;60.40;;;;;;5136152;27;20465;-85
2022/04/05 01:48:42;;;;;;;13.60;8.77;;;8.40;60.00;;;;;;5136207;27;20469;-87
2022/04/05 01:51:09;;;;;;;14.80;9.43;;;8.40;60.80;;;;;;5120401;27;20453;-86
2022/04/05 01:53:36;;;;;;;15.10;9.30;;;8.40;61.00;;;;;;5119004;27;21044;-86
2022/04/05 01:56:05;;;;;;;17.67;9.50;;;8.30;60.90;;;;;;5139137;27;20425;-87
2022/04/05 01:58:32;;;;;;;11.80;9.50;;;8.50;61.20;;;;;;5089011;27;20441;-86
2022/04/05 02:01:01;;;;;;;13.10;9.00;;;8.60;60.90;;;;;;5092789;27;20461;-86
2022/04/05 02:03:28;;;;;;;16.10;10.00;;;8.30;61.20;;;;;;5101893;27;20509;-86
2022/04/05 02:05:57;;;;;;;11.50;8.47;;;8.20;61.80;;;;;;5120887;27;20468;-86
2022/04/05 02:08:26;;;;;;;12.27;9.33;;;8.10;61.90;;;;;;5105984;27;20834;-87
2022/04/05 02:10:54;;;;;;;15.53;8.93;;;8.00;62.60;;;;;;5101916;27;20465;-86
2022/04/05 02:13:24;;;;;;;13.03;9.20;;;8.00;63.40;;;;;;5118682;27;20477;-87
2022/04/05 02:15:55;;;;;;;15.33;8.73;;;8.20;63.40;;;;;;5104732;27;20868;-87
2022/04/05 02:18:22;;;;;;;15.60;9.60;;;8.40;62.80;;;;;;5100289;27;20448;-84
2022/04/05 02:20:51;;;;;;;13.20;9.97;;;8.60;62.00;;;;;;5119841;27;20442;-85
2022/04/05 02:23:21;;;;;;;12.23;8.10;;;8.50;61.90;;;;;;5105017;27;21230;-85
2022/04/05 02:26:10;;;;;;;15.00;9.40;;;8.30;62.10;;;;;;5119586;27;21845;-87
2022/04/05 02:28:44;;;;;;;14.50;9.10;;;8.20;63.30;;;;;;5104346;27;20446;-86
2022/04/05 02:31:15;;;;;;;12.70;9.50;;;8.10;63.70;;;;;;5138457;27;20524;-85
2022/04/05 02:33:43;;;;;;;14.40;9.00;;;8.10;64.40;;;;;;5127471;27;20970;-86
2022/04/05 02:36:18;;;;;;;14.53;8.30;;;8.00;63.60;;;;;;5109059;27;20548;-87
2022/04/05 02:38:46;;;;;;;10.70;9.17;;;8.10;63.50;;;;;;5120554;27;21020;-87
2022/04/05 02:41:14;;;;;;;13.10;9.60;;;8.20;64.00;;;;;;5119290;27;20507;-87
2022/04/05 02:43:44;;;;;;;11.13;8.10;;;8.50;63.20;;;;;;5101797;27;20551;-88
2022/04/05 02:46:13;;;;;;;16.17;9.23;;;8.70;62.50;;;;;;5103092;27;21166;-86
2022/04/05 02:48:45;;;;;;;14.37;9.63;;;8.50;61.90;;;;;;5108865;27;20477;-86
2022/04/05 02:51:18;;;;;;;14.10;9.00;;;8.50;63.10;;;;;;5106034;27;20436;-87
2022/04/05 02:53:46;;;;;;;11.50;8.57;;;8.60;62.60;;;;;;5085162;27;20473;-86
2022/04/05 02:56:14;;;;;;;14.33;8.57;;;8.70;62.30;;;;;;5102194;27;20486;-87
2022/04/05 02:58:47;;;;;;;13.43;8.83;;;8.80;62.10;;;;;;5093506;27;21184;-86
2022/04/05 03:01:16;;;;;;;14.33;9.00;;;8.80;61.80;;;;;;5103400;27;20442;-87
2022/04/05 03:03:45;;;;;;;21.30;8.23;;;8.80;61.70;;;;;;5108532;27;20474;-88
2022/04/05 03:06:14;;;;;;;12.50;8.43;;;8.90;61.40;;;;;;5119253;27;21291;-88
2022/04/05 03:08:42;;;;;;;17.33;9.63;;;8.90;61.20;;;;;;5098281;27;20457;-86
2022/04/05 03:11:11;;;;;;;14.37;9.13;;;8.80;62.00;;;;;;5110147;27;20501;-87
2022/04/05 03:13:39;;;;;;;11.10;7.27;;;8.50;62.00;;;;;;5107147;27;20483;-87
2022/04/05 03:16:09;;;;;;;12.60;9.20;;;8.40;63.00;;;;;;5092306;27;20537;-87
2022/04/05 03:18:38;;;;;;;10.90;8.40;;;8.40;62.30;;;;;;5122530;27;20433;-86
2022/04/05 03:21:05;;;;;;;14.30;8.90;;;8.50;62.90;;;;;;5102832;27;20495;-86
2022/04/05 03:23:33;;;;;;;12.77;9.53;;;8.60;62.90;;;;;;5125823;27;20465;-86
2022/04/05 03:26:00;;;;;;;11.47;8.50;;;8.60;62.80;;;;;;5120754;27;20461;-86
2022/04/05 03:28:30;;;;;;;12.97;7.80;;;8.60;62.90;;;;;;5129711;27;20454;-86
2022/04/05 03:30:57;;;;;;;11.77;8.80;;;8.70;62.80;;;;;;5086576;27;20458;-86
2022/04/05 03:33:26;;;;;;;11.10;7.67;;;8.60;62.40;;;;;;5112967;27;20476;-87
2022/04/05 03:35:55;;;;;;;11.07;8.20;;;8.70;62.80;;;;;;5113929;27;20466;-87
2022/04/05 03:38:23;;;;;;;13.47;8.07;;;8.60;62.70;;;;;;5107222;27;20458;-86
2022/04/05 03:40:51;;;;;;;21.60;8.17;;;8.40;63.30;;;;;;5121644;27;20529;-87
2022/04/05 03:43:18;;;;;;;14.87;9.13;;;8.40;63.00;;;;;;5121334;27;20519;-86
2022/04/05 03:45:50;;;;;;;14.03;7.83;;;8.50;63.50;;;;;;5096071;27;20488;-87
2022/04/05 03:48:17;;;;;;;11.63;7.60;;;8.60;62.90;;;;;;5092127;27;20472;-87
2022/04/05 03:50:46;;;;;;;11.83;8.37;;;8.80;62.70;;;;;;5109015;27;20458;-87
2022/04/05 03:53:14;;;;;;;11.70;7.63;;;8.90;61.70;;;;;;5119820;27;20465;-89
2022/04/05 03:55:43;;;;;;;11.40;7.90;;;8.90;61.90;;;;;;5110060;27;20468;-87
2022/04/05 03:58:12;;;;;;;12.50;8.17;;;8.80;61.40;;;;;;5105006;27;20442;-87
2022/04/05 04:00:40;;;;;;;9.40;8.27;;;8.80;61.70;;;;;;5089822;27;20982;-87
2022/04/05 04:03:16;;;;;;;12.97;8.03;;;8.60;62.10;;;;;;5105505;27;20901;-87
2022/04/05 04:05:46;;;;;;;13.90;7.57;;;8.50;63.20;;;;;;5087417;27;20497;-87
2022/04/05 04:08:14;;;;;;;8.83;7.20;;;8.70;62.90;;;;;;5101081;27;21036;-86
2022/04/05 04:10:43;;;;;;;10.17;6.73;;;8.50;62.80;;;;;;5106405;27;20449;-88
2022/04/05 04:13:10;;;;;;;8.80;7.17;;;8.60;63.20;;;;;;5092475;27;20470;-87
2022/04/05 04:15:42;;;;;;;11.80;8.53;;;8.60;63.80;;;;;;5106985;27;20475;-86
2022/04/05 04:18:10;;;;;;;12.07;8.70;;;8.60;63.90;;;;;;5099392;27;20643;-86
2022/04/05 04:20:42;;;;;;;10.57;7.30;;;8.50;63.70;;;;;;5092486;27;20453;-87
2022/04/05 04:23:11;;;;;;;10.40;7.50;;;8.50;64.20;;;;;;5108714;27;20474;-86
2022/04/05 04:25:43;;;;;;;11.00;6.80;;;8.50;63.40;;;;;;5105179;27;20477;-86
2022/04/05 04:28:11;;;;;;;8.97;7.23;;;8.80;63.10;;;;;;5108726;27;20471;-87
2022/04/05 04:30:40;;;;;;;11.53;8.57;;;8.70;62.90;;;;;;5108301;27;20446;-86
2022/04/05 04:33:08;;;;;;;7.03;6.30;;;8.90;62.70;;;;;;5110014;27;20469;-87
2022/04/05 04:35:38;;;;;;;12.43;8.40;;;8.90;62.30;;;;;;5104780;27;20434;-88
2022/04/05 04:38:07;;;;;;;8.10;7.00;;;8.90;62.70;;;;;;5118942;27;20470;-88
2022/04/05 04:40:36;;;;;;;9.30;6.40;;;8.70;63.00;;;;;;5103848;27;20461;-87
2022/04/05 04:43:04;;;;;;;10.90;7.50;;;8.90;62.90;;;;;;5085205;27;20473;-88
2022/04/05 04:45:31;;;;;;;9.73;7.00;;;9.10;62.30;;;;;;5117353;27;21040;-88
2022/04/05 04:47:58;;;;;;;10.63;7.33;;;9.10;61.70;;;;;;5102731;27;20448;-88
2022/04/05 04:50:25;;;;;;;7.90;5.60;;;9.00;62.40;;;;;;5105885;27;20453;-88
2022/04/05 04:52:53;;;;;;;9.47;6.50;;;9.20;62.30;;;;;;5114915;27;20465;-88
2022/04/05 04:55:22;;;;;;;10.03;7.70;;;9.20;61.70;;;;;;5112788;27;20684;-88
2022/04/05 04:57:50;;;;;;;7.20;6.37;;;9.20;61.70;;;;;;5100113;27;21224;-86
2022/04/05 05:00:18;;;;;;;9.03;6.53;;;9.20;62.00;;;;;;5132160;27;20456;-88
2022/04/05 05:02:46;;;;;;;9.03;6.87;;;9.20;61.20;;;;;;5112262;27;20469;-88
2022/04/05 05:05:14;;;;;;;7.80;5.47;;;9.30;61.40;;;;;;5113912;27;20433;-88
2022/04/05 05:07:41;;;;;;;6.03;5.33;;;9.30;60.80;;;;;;5133689;27;20971;-88
2022/04/05 05:10:09;;;;;;;8.70;7.37;;;9.10;61.60;;;;;;5123209;27;20441;-88
2022/04/05 05:12:36;;;;;;;10.33;7.50;;;9.20;62.10;;;;;;5097854;27;20573;-88
2022/04/05 05:15:05;;;;;;;7.97;6.00;;;9.20;62.10;;;;;;5099936;27;20461;-88
2022/04/05 05:17:32;;;;;;;7.97;5.80;;;9.40;61.80;;;;;;5117534;27;20529;-88
2022/04/05 05:19:59;;;;;;;9.13;6.30;;;9.50;60.90;;;;;;5114926;27;20967;-88
2022/04/05 05:22:26;;;;;;;7.53;5.90;;;9.50;61.00;;;;;;5082193;27;20469;-87
2022/04/05 05:24:53;;;;;;;11.17;6.30;;;9.40;61.70;;;;;;5102373;27;20445;-88
2022/04/05 05:27:20;;;;;;;9.33;7.13;;;9.40;61.50;;;;;;5113541;27;20477;-88
2022/04/05 05:29:47;;;;;;;10.77;6.47;;;9.30;61.60;;;;;;5107574;27;20449;-88
2022/04/05 05:32:15;;;;;;;8.87;6.43;;;9.30;61.40;;;;;;5114990;27;21021;-88
2022/04/05 05:34:42;;;;;;;10.37;6.50;;;9.20;62.00;;;;;;5096155;27;20450;-88
2022/04/05 05:37:09;;;;;;;10.90;7.13;;;9.10;62.90;;;;;;5097229;27;20458;-87
2022/04/05 05:39:37;;;;;;;8.93;6.80;;;9.00;62.50;;;;;;5099456;27;20450;-88
2022/04/05 05:42:04;;;;;;;7.97;6.33;;;9.00;62.80;;;;;;5086995;27;20522;-90
2022/04/05 05:44:32;;;;;;;9.60;6.93;;;9.30;62.60;;;;;;5099822;27;20492;-89
2022/04/05 05:46:59;;;;;;;9.13;7.03;;;9.30;61.60;;;;;;5117290;27;20461;-89
2022/04/05 05:49:27;;;;;;;9.70;6.30;;;9.20;62.60;;;;;;5134361;27;20542;-88
2022/04/05 05:51:54;;;;;;;8.17;6.20;;;9.20;61.80;;;;;;5116510;27;20449;-89
2022/04/05 05:54:21;;;;;;;9.87;6.77;;;9.20;62.20;;;;;;5115801;27;20438;-86
2022/04/05 05:56:48;;;;;;;7.83;5.47;;;9.30;62.00;;;;;;5120138;27;20517;-88
2022/04/05 05:59:15;;;;;;;9.60;5.87;;;9.20;61.90;;;;;;5107286;27;20440;-88
2022/04/05 06:01:43;;;;;;;6.63;5.10;;;9.20;62.20;;;;;;5116127;27;20941;-87
2022/04/05 06:04:10;;;;;;;9.00;6.50;;;9.20;62.20;;;;;;5108799;27;20547;-88
2022/04/05 06:06:38;;;;;;;8.73;6.80;;;9.20;62.60;;;;;;5126008;27;20468;-88
2022/04/05 06:09:06;;;;;;;8.27;6.37;;;9.20;62.40;;;;;;5101895;27;20438;-87
2022/04/05 06:11:33;;;;;;;9.50;7.00;;;9.30;62.60;;;;;;5135467;27;20800;-87
2022/04/05 06:14:00;;;;;;;9.90;7.10;;;9.40;61.90;;;;;;5105594;27;20468;-88
2022/04/05 06:16:27;;;;;;;6.87;5.70;;;9.60;61.10;;;;;;5104311;27;20437;-88
2022/04/05 06:18:54;;;;;;;7.90;6.90;;;9.50;61.70;;;;;;5110711;27;20501;-87
2022/04/05 06:21:21;;;;;;;7.20;5.70;;;9.50;62.10;;;;;;5117429;27;20502;-88
2022/04/05 06:23:52;;;;;;;10.33;6.37;;;9.30;62.80;;;;;;5103090;27;20465;-88
2022/04/05 06:26:19;;;;;;;9.20;6.57;;;9.50;62.80;;;;;;5108923;27;20457;-88
2022/04/05 06:28:46;;;;;;;8.83;6.77;;;9.50;62.90;;;;;;5094019;27;20582;-88
2022/04/05 06:31:13;;;;;;;9.60;7.00;;;9.60;62.90;;;;;;5104279;27;20878;-87
2022/04/05 06:33:40;;;;;;;13.20;6.30;;;9.60;63.30;;;;;;5119162;27;21105;-87
2022/04/05 06:36:07;;;;;;;12.40;9.40;;;9.60;63.40;;;;;;5100839;27;20448;-88
2022/04/05 06:38:34;;;;;;;15.27;10.93;;;9.60;63.30;;;;;;5104075;27;20450;-88
2022/04/05 06:41:02;;;;;;;31.30;15.07;;;9.70;62.90;;;;;;5117161;27;20468;-87
2022/04/05 06:43:30;;;;;;;23.37;11.70;;;9.60;62.90;;;;;;5133514;27;20472;-87
2022/04/05 06:45:57;;;;;;;19.07;12.37;;;9.70;63.10;;;;;;5136815;27;20532;-87
2022/04/05 06:48:24;;;;;;;14.90;9.47;;;9.60;63.00;;;;;;5137604;27;20448;-88
2022/04/05 06:50:51;;;;;;;9.50;7.40;;;9.70;63.20;;;;;;5102695;27;20455;-90
2022/04/05 06:53:18;;;;;;;13.63;8.20;;;9.60;63.50;;;;;;5104667;27;20759;-87
2022/04/05 06:55:45;;;;;;;9.23;6.57;;;9.30;64.30;;;;;;5135828;27;20445;-89
2022/04/05 06:58:13;;;;;;;7.73;6.40;;;9.40;64.50;;;;;;5087045;27;20453;-88
2022/04/05 07:00:40;;;;;;;13.07;8.47;;;9.60;63.60;;;;;;5134311;27;21229;-86
2022/04/05 07:03:07;;;;;;;15.77;10.47;;;9.70;63.40;;;;;;5103155;27;20476;-88
2022/04/05 07:05:36;;;;;;;9.87;7.40;;;9.90;63.20;;;;;;5115378;27;20450;-88
2022/04/05 07:08:03;;;;;;;8.77;6.90;;;9.70;64.30;;;;;;5138135;27;20470;-88
2022/04/05 07:10:30;;;;;;;9.93;6.90;;;9.70;63.20;;;;;;5103230;27;20532;-86
2022/04/05 07:12:57;;;;;;;16.57;10.13;;;9.80;63.50;;;;;;5103395;27;20507;-90
2022/04/05 07:15:25;;;;;;;15.50;10.77;;;9.80;63.50;;;;;;5083171;27;20449;-88
2022/04/05 07:17:52;;;;;;;21.60;10.93;;;9.70;63.80;;;;;;5123577;27;20924;-87
2022/04/05 07:20:19;;;;;;;11.57;8.00;;;9.50;63.80;;;;;;5136777;27;20445;-87
2022/04/05 07:22:48;;;;;;;7.43;6.10;;;9.30;65.10;;;;;;5133996;27;20466;-88
2022/04/05 07:25:15;;;;;;;7.40;5.70;;;9.30;65.70;;;;;;5116412;27;20761;-88
2022/04/05 07:27:44;;;;;;;10.70;7.30;;;9.40;65.30;;;;;;5117723;27;20995;-88
2022/04/05 07:30:12;;;;;;;9.97;6.90;;;9.40;65.60;;;;;;5104542;27;20725;-88
2022/04/05 07:32:42;;;;;;;6.37;5.77;;;9.50;65.30;;;;;;5099570;27;21081;-87
2022/04/05 07:35:10;;;;;;;6.63;5.90;;;9.60;64.80;;;;;;5089578;27;20505;-88
2022/04/05 07:37:38;;;;;;;6.77;5.50;;;9.60;64.80;;;;;;5089462;27;20442;-89
2022/04/05 07:40:10;;;;;;;9.90;6.60;;;9.70;64.70;;;;;;5087796;27;20452;-88
2022/04/05 07:42:38;;;;;;;8.90;5.60;;;9.40;64.90;;;;;;5103421;27;20588;-89
2022/04/05 07:45:06;;;;;;;9.37;6.27;;;9.50;65.70;;;;;;5102204;27;20939;-89
2022/04/05 07:47:33;;;;;;;7.90;6.30;;;9.60;65.20;;;;;;5092564;27;20462;-89
2022/04/05 07:50:01;;;;;;;6.63;5.80;;;9.60;64.90;;;;;;5088114;27;20544;-88
2022/04/05 07:52:28;;;;;;;6.93;5.73;;;9.60;64.90;;;;;;5104636;27;20472;-89
2022/04/05 07:54:56;;;;;;;7.30;6.53;;;9.60;65.10;;;;;;5135150;27;20446;-89
2022/04/05 07:57:23;;;;;;;6.27;4.77;;;9.60;65.30;;;;;;5102724;27;20533;-90
2022/04/05 07:59:50;;;;;;;7.13;5.43;;;9.70;65.50;;;;;;5103533;27;20445;-88
2022/04/05 08:02:18;;;;;;;6.13;4.97;;;9.70;64.90;;;;;;5106572;27;20477;-89
2022/04/05 08:04:45;;;;;;;5.20;3.80;;;9.60;65.50;;;;;;5108647;27;20458;-88
2022/04/05 08:07:13;;;;;;;5.20;4.40;;;9.50;65.00;;;;;;5115377;27;20480;-89
2022/04/05 08:09:40;;;;;;;4.03;3.63;;;9.60;65.40;;;;;;5140129;27;20450;-90
2022/04/05 08:12:08;;;;;;;4.40;4.00;;;9.70;65.20;;;;;;5090391;27;20438;-90
2022/04/05 08:14:36;;;;;;;5.73;4.90;;;9.60;65.30;;;;;;5119220;27;20825;-89
2022/04/05 08:17:03;;;;;;;4.30;3.60;;;9.60;65.60;;;;;;5108432;27;20429;-89
2022/04/05 08:19:30;;;;;;;5.63;3.70;;;9.50;65.30;;;;;;5135304;27;20568;-89
2022/04/05 08:21:57;;;;;;;6.57;4.07;;;9.70;64.90;;;;;;5138631;27;20456;-89
2022/04/05 08:24:27;;;;;;;5.13;4.43;;;9.80;64.70;;;;;;5118828;27;20452;-88
2022/04/05 08:26:54;;;;;;;5.30;4.07;;;9.70;64.30;;;;;;5089594;27;20477;-91
2022/04/05 08:29:21;;;;;;;4.73;3.83;;;9.80;64.70;;;;;;5134031;27;20433;-87
2022/04/05 08:31:48;;;;;;;4.03;3.63;;;9.60;64.70;;;;;;5119642;27;20441;-91
2022/04/05 08:34:15;;;;;;;4.83;3.50;;;9.60;65.30;;;;;;5091038;27;20468;-89
2022/04/05 08:36:42;;;;;;;4.60;3.47;;;9.40;65.10;;;;;;5109022;27;20444;-90
2022/04/05 08:39:09;;;;;;;4.77;3.60;;;9.30;65.90;;;;;;5102620;27;20540;-89
2022/04/05 08:41:41;;;;;;;5.20;3.67;;;9.50;65.60;;;;;;5138458;27;20450;-89
2022/04/05 08:44:09;;;;;;;4.83;4.33;;;9.80;65.60;;;;;;5087605;27;20477;-90
2022/04/05 08:46:36;;;;;;;4.10;3.50;;;10.00;64.00;;;;;;5117095;27;20532;-89
2022/04/05 08:49:03;;;;;;;3.90;3.10;;;10.10;63.80;;;;;;5100808;27;20512;-90
2022/04/05 08:51:31;;;;;;;6.13;3.47;;;10.00;63.80;;;;;;5101783;27;20481;-89
2022/04/05 08:53:58;;;;;;;4.20;3.20;;;10.10;63.80;;;;;;5091239;27;20476;-88
2022/04/05 08:56:27;;;;;;;3.70;3.40;;;10.20;63.40;;;;;;5101711;27;20448;-89
2022/04/05 08:58:56;;;;;;;3.30;2.80;;;10.20;63.50;;;;;;5086476;27;20453;-89
2022/04/05 09:01:23;;;;;;;3.80;3.10;;;10.10;64.00;;;;;;5100698;27;20452;-90
2022/04/05 09:03:50;;;;;;;3.13;2.87;;;10.30;64.20;;;;;;5099941;27;20489;-87
2022/04/05 09:06:28;;;;;;;3.03;2.67;;;10.30;63.40;;;;;;5103746;27;20488;-89
2022/04/05 09:08:59;;;;;;;3.30;2.63;;;10.30;63.20;;;;;;5090972;27;20492;-89
2022/04/05 09:11:29;;;;;;;3.47;2.80;;;10.20;63.60;;;;;;5113676;27;20458;-90
2022/04/05 09:14:02;;;;;;;3.33;2.87;;;10.30;64.00;;;;;;5132914;27;20510;-89
2022/04/05 09:16:31;;;;;;;3.27;2.97;;;10.40;62.60;;;;;;5113037;27;20450;-90
2022/04/05 09:18:59;;;;;;;8.70;3.50;;;10.30;63.00;;;;;;5102371;27;20481;-90
2022/04/05 09:21:27;;;;;;;2.50;2.30;;;10.30;64.10;;;;;;5089901;27;20477;-90
2022/04/05 09:24:07;;;;;;;7.17;4.47;;;10.30;63.00;;;;;;5105777;27;20999;-90
2022/04/05 09:26:43;;;;;;;5.80;4.47;;;10.20;63.30;;;;;;5094912;27;20963;-90
2022/04/05 09:29:12;;;;;;;18.50;9.47;;;10.30;63.00;;;;;;5106159;27;20912;-90
2022/04/05 09:31:48;;;;;;;13.20;7.30;;;10.20;63.30;;;;;;5089660;27;20875;-90
2022/04/05 09:34:17;;;;;;;5.80;4.47;;;10.20;63.30;;;;;;5098885;27;20991;-89
2022/04/05 09:36:48;;;;;;;3.03;2.73;;;10.20;63.40;;;;;;5092876;27;20564;-89
2022/04/05 09:39:20;;;;;;;3.13;2.90;;;10.20;63.80;;;;;;5090244;27;20434;-88
2022/04/05 09:41:49;;;;;;;3.60;2.53;;;10.00;63.30;;;;;;5108233;27;20445;-88
2022/04/05 09:44:27;;;;;;;3.90;3.20;;;10.00;63.70;;;;;;5137012;27;20513;-89
2022/04/05 09:47:04;;;;;;;3.33;2.97;;;10.20;64.20;;;;;;5101964;27;20448;-89
2022/04/05 09:49:33;;;;;;;4.27;3.10;;;10.20;63.40;;;;;;5108933;27;20954;-89
2022/04/05 09:52:00;;;;;;;6.73;5.83;;;10.40;63.40;;;;;;5102550;27;20458;-88
2022/04/05 09:54:29;;;;;;;5.73;4.53;;;10.50;62.70;;;;;;5116686;27;20449;-90
2022/04/05 09:57:06;;;;;;;3.43;2.93;;;10.60;61.80;;;;;;5104778;27;20452;-89
2022/04/05 09:59:43;;;;;;;3.50;3.20;;;10.60;62.50;;;;;;5110317;27;20448;-88
2022/04/05 10:02:12;;;;;;;4.37;3.97;;;10.80;62.00;;;;;;5088065;27;20452;-89
2022/04/05 10:05:00;;;;;;;4.00;3.63;;;10.90;62.30;;;;;;5113603;27;20453;-89
2022/04/05 10:07:28;;;;;;;4.23;3.83;;;10.70;61.80;;;;;;5096168;27;20471;-87
2022/04/05 10:09:56;;;;;;;3.33;3.03;;;10.70;62.30;;;;;;5089745;27;20449;-88
2022/04/05 10:12:24;;;;;;;4.00;3.60;;;10.60;62.70;;;;;;5104350;27;20502;-90
2022/04/05 10:14:53;;;;;;;5.70;5.20;;;10.60;63.80;;;;;;5133232;27;20441;-88
2022/04/05 10:17:21;;;;;;;4.10;3.70;;;10.60;64.10;;;;;;5107987;27;20437;-90
2022/04/05 10:19:50;;;;;;;6.53;5.23;;;10.60;64.00;;;;;;5137694;27;20502;-89
2022/04/05 10:22:18;;;;;;;4.57;4.13;;;10.60;63.90;;;;;;5108250;27;20541;-89
2022/04/05 10:24:48;;;;;;;4.27;3.87;;;10.50;63.50;;;;;;5101013;27;20514;-89
2022/04/05 10:27:16;;;;;;;4.20;3.90;;;10.50;63.40;;;;;;5119658;27;20515;-89
2022/04/05 10:29:45;;;;;;;4.93;4.10;;;10.50;62.60;;;;;;5105786;27;20446;-88
2022/04/05 10:32:22;;;;;;;3.70;3.40;;;10.70;63.70;;;;;;5105958;27;21101;-88
2022/04/05 10:34:55;;;;;;;3.70;2.90;;;10.90;63.00;;;;;;5140380;27;20452;-88
2022/04/05 10:37:31;;;;;;;3.80;3.50;;;10.80;62.50;;;;;;5138731;27;20488;-90
2022/04/05 10:40:14;;;;;;;4.27;3.90;;;10.70;63.10;;;;;;5110138;27;20455;-89
2022/04/05 10:42:44;;;;;;;4.03;2.90;;;10.90;62.60;;;;;;5088172;27;20465;-89
2022/04/05 10:45:13;;;;;;;3.30;3.00;;;11.10;62.90;;;;;;5092834;27;21289;-90
2022/04/05 10:48:12;;;;;;;3.67;3.27;;;11.30;62.30;;;;;;5094840;27;21068;-89
2022/04/05 10:50:39;;;;;;;3.60;3.20;;;11.50;62.30;;;;;;5105881;27;20825;-89
2022/04/05 10:53:31;;;;;;;3.50;3.20;;;11.60;61.10;;;;;;5118656;27;20823;-88
2022/04/05 10:56:15;;;;;;;3.37;3.07;;;11.50;60.80;;;;;;5078696;27;20798;-89
2022/04/05 10:59:17;;;;;;;4.60;3.57;;;11.50;60.60;;;;;;5107494;27;20426;-88
2022/04/05 11:01:45;;;;;;;3.80;3.07;;;11.70;61.00;;;;;;5091351;27;20478;-90
2022/04/05 11:04:32;;;;;;;4.70;3.13;;;11.80;61.30;;;;;;5136080;27;20464;-88
2022/04/05 11:07:13;;;;;;;3.43;2.83;;;11.80;60.50;;;;;;5124264;27;20493;-89
2022/04/05 11:09:48;;;;;;;4.00;3.60;;;11.90;60.90;;;;;;5110624;27;20565;-88
2022/04/05 11:12:19;;;;;;;3.93;3.50;;;12.10;61.00;;;;;;5105487;27;20449;-89
2022/04/05 11:14:50;;;;;;;2.50;2.30;;;12.20;60.20;;;;;;5111969;27;20454;-89
2022/04/05 11:17:19;;;;;;;3.47;3.17;;;12.30;59.40;;;;;;5127401;27;20445;-89
2022/04/05 11:19:51;;;;;;;4.13;3.60;;;12.30;59.00;;;;;;5123097;27;20445;-90
2022/04/05 11:22:30;;;;;;;3.60;3.10;;;12.30;60.00;;;;;;5094218;27;20673;-89
2022/04/05 11:25:00;;;;;;;3.00;2.80;;;12.40;60.20;;;;;;5109603;27;20472;-89
2022/04/05 11:27:29;;;;;;;3.07;2.77;;;12.40;59.10;;;;;;5092072;27;21023;-89
2022/04/05 11:30:37;;;;;;;3.30;3.00;;;12.30;58.80;;;;;;5090032;27;20498;-89
2022/04/05 11:33:15;;;;;;;3.90;3.50;;;12.10;59.50;;;;;;5105804;27;20469;-89
2022/04/05 11:35:46;;;;;;;5.07;4.20;;;12.20;60.00;;;;;;5088494;27;20446;-89
2022/04/05 11:38:26;;;;;;;6.17;5.57;;;12.20;60.00;;;;;;5092988;27;20449;-89
2022/04/05 11:40:55;;;;;;;4.30;3.70;;;12.30;59.50;;;;;;5127125;27;20445;-89
2022/04/05 11:43:24;;;;;;;4.73;4.10;;;12.20;59.10;;;;;;5121086;27;20554;-88
2022/04/05 11:45:54;;;;;;;5.17;4.53;;;12.10;59.60;;;;;;5106804;27;20445;-90
2022/04/05 11:48:23;;;;;;;4.50;3.87;;;11.90;59.70;;;;;;5140010;27;20462;-88
2022/04/05 11:50:52;;;;;;;4.03;3.63;;;12.10;59.70;;;;;;5121981;27;20459;-89
2022/04/05 11:53:19;;;;;;;5.53;4.43;;;12.30;59.70;;;;;;5141401;27;20984;-90
2022/04/05 11:56:02;;;;;;;5.37;4.33;;;12.50;59.30;;;;;;5138855;27;20456;-89
2022/04/05 11:58:30;;;;;;;3.90;3.60;;;12.70;59.40;;;;;;5109498;27;20441;-90
2022/04/05 12:00:58;;;;;;;5.20;4.70;;;12.90;58.10;;;;;;5092950;27;20453;-90
2022/04/05 12:03:25;;;;;;;35.90;14.90;;;12.80;58.80;;;;;;5112234;27;21323;-89
2022/04/05 12:05:54;;;;;;;25.50;10.90;;;12.70;58.80;;;;;;5092508;27;20444;-89
2022/04/05 12:08:21;;;;;;;20.63;9.20;;;12.70;58.80;;;;;;5109414;27;20548;-88
2022/04/05 12:10:48;;;;;;;14.63;8.77;;;13.00;58.70;;;;;;5106154;27;20442;-89
2022/04/05 12:13:15;;;;;;;17.10;9.50;;;13.00;58.20;;;;;;5120944;27;21001;-90
2022/04/05 12:15:43;;;;;;;12.77;7.60;;;13.00;57.90;;;;;;5094475;27;20444;-89
2022/04/05 12:18:17;;;;;;;20.97;10.90;;;13.10;57.70;;;;;;5114356;27;20441;-90
2022/04/05 12:20:58;;;;;;;7.10;4.83;;;12.80;58.40;;;;;;5105342;27;20468;-90
2022/04/05 12:23:30;;;;;;;18.27;11.80;;;13.00;57.90;;;;;;5102504;27;20461;-89
2022/04/05 12:26:10;;;;;;;7.03;5.90;;;13.00;58.20;;;;;;5084989;27;20851;-90
2022/04/05 12:28:39;;;;;;;5.27;4.77;;;12.70;57.70;;;;;;5089696;27;20518;-89
2022/04/05 12:31:15;;;;;;;5.20;4.70;;;12.60;58.60;;;;;;5106958;27;20506;-89
2022/04/05 12:33:53;;;;;;;6.97;5.30;;;12.60;58.80;;;;;;5094261;27;20468;-89
2022/04/05 12:36:22;;;;;;;7.90;6.10;;;12.60;58.30;;;;;;5107831;27;20954;-90
2022/04/05 12:38:49;;;;;;;5.97;5.10;;;12.50;58.90;;;;;;5105940;27;20483;-88
2022/04/05 12:41:17;;;;;;;7.70;5.23;;;12.50;58.80;;;;;;5121060;27;20449;-90
2022/04/05 12:43:47;;;;;;;6.37;5.77;;;12.60;58.30;;;;;;5107146;27;20464;-90
2022/04/05 12:46:15;;;;;;;9.23;7.80;;;12.50;58.00;;;;;;5122269;27;20472;-90
2022/04/05 12:48:42;;;;;;;12.10;6.97;;;12.60;58.70;;;;;;5138702;27;21057;-90
2022/04/05 12:51:09;;;;;;;7.37;6.60;;;12.80;58.40;;;;;;5103257;27;20509;-90
2022/04/05 12:53:39;;;;;;;8.43;6.80;;;12.60;58.20;;;;;;5140357;27;20461;-89
2022/04/05 12:56:09;;;;;;;11.40;8.17;;;12.70;58.00;;;;;;5134799;27;21056;-89
2022/04/05 12:58:42;;;;;;;7.33;6.20;;;12.70;58.70;;;;;;5100399;27;20437;-88
2022/04/05 13:01:21;;;;;;;9.00;7.20;;;12.50;58.50;;;;;;5117198;27;20481;-89